Adriatic Id — VRFP6 — position and weather

sailwx.info

Track history (hours):
 
Tides and Currents Weather Stations Pressure Air Temp Water Temp Dewpoint Dewpoint Depression Visibility Wind Speed Wind Dir Waves Ship Positions

Adriatic Id

Last reported at 2018-Jan-09 03:51 UTC. Time now 2018-Jan-22 18:38 UTC.
Position N 25°20' E 121°33'.
Warning: this ship's position is 13 days out of date.

Length 158 m; draft 9.3 m.

Type: Cargo ship. MMSI: 477559800.

Date/timePositionNaut miles runAvg speedWind from/ knotsBaromVisibWave heightAir tempDewpointWater temp
2018-Jan-09 03:51N 25°20' E 121°33'412.0
2018-Jan-09 03:30N 25°19' E 121°38'511.0
2018-Jan-09 03:00N 25°16' E 121°42'5 9.9
2018-Jan-09 02:30N 25°12' E 121°45'3 5.9
2018-Jan-09 02:01N 25°09' E 121°45'0 0.4
2018-Jan-09 01:28N 25°09' E 121°45'0 0.0
2018-Jan-09 00:58N 25°09' E 121°45'0 0.0
2018-Jan-09 00:28N 25°09' E 121°45'0 0.0
2018-Jan-08 23:58N 25°09' E 121°45'0 0.0
2018-Jan-08 23:28N 25°09' E 121°45'0 0.0
2018-Jan-08 22:58N 25°09' E 121°45'0 0.0
2018-Jan-08 22:28N 25°09' E 121°45'0 0.0
2018-Jan-08 21:58N 25°09' E 121°45'0 0.0
2018-Jan-08 21:28N 25°09' E 121°45'0 0.6
2018-Jan-08 21:00N 25°09' E 121°45'2 4.9
2018-Jan-08 20:31N 25°11' E 121°45'4 7.1
2018-Jan-08 20:00N 25°15' E 121°43'612.0
2018-Jan-08 19:30N 25°19' E 121°38'510.8
2018-Jan-08 19:00N 25°22' E 121°33'610.6
2018-Jan-08 18:29N 25°24' E 121°28'  
2018-Jan-04 12:04N 25°25' E 121°03'  
2018-Jan-01 12:01N 25°14' E 121°16'510.1
2018-Jan-01 11:30N 25°17' E 121°12'5 9.4
2018-Jan-01 11:00N 25°20' E 121°08'9 9.8
2018-Jan-01 10:05N 25°26' E 121°00'110.0
2018-Jan-01 09:58N 25°27' E 120°59'1 0.0
2017-Dec-30 17:30N 25°27' E 121°00'712.0
2017-Dec-30 16:55N 25°22' E 121°06'511.7
2017-Dec-30 16:30N 25°19' E 121°10'611.9
2017-Dec-30 16:01N 25°15' E 121°16'612.4
2017-Dec-30 15:30N 25°11' E 121°20'3 6.6
2017-Dec-30 14:59N 25°09' E 121°23'0 0.1
2017-Dec-30 14:29N 25°09' E 121°24'0 0.1
2017-Dec-30 13:59N 25°09' E 121°23'0 0.0
2017-Dec-30 13:29N 25°09' E 121°23'0 0.0
2017-Dec-30 12:50N 25°09' E 121°23'0 0.0
2017-Dec-30 12:29N 25°09' E 121°23'0 0.0
2017-Dec-30 11:59N 25°09' E 121°23'0 0.0
2017-Dec-30 11:29N 25°09' E 121°23'0 0.0
2017-Dec-30 10:59N 25°09' E 121°23'0 0.1
2017-Dec-30 10:23N 25°09' E 121°24'0 0.1
2017-Dec-30 09:59N 25°09' E 121°23'0 0.0
2017-Dec-30 09:26N 25°09' E 121°23'0 0.0
2017-Dec-30 08:59N 25°09' E 121°23'0 0.0
2017-Dec-30 08:29N 25°09' E 121°23'0 0.0
2017-Dec-30 07:53N 25°09' E 121°23'0 0.1
2017-Dec-30 07:23N 25°09' E 121°24'0 0.0
2017-Dec-30 06:59N 25°09' E 121°24'0 0.1
2017-Dec-30 06:29N 25°09' E 121°23'0 0.0
2017-Dec-30 05:59N 25°09' E 121°23'0 0.1
2017-Dec-30 05:23N 25°09' E 121°24'0 0.1
2017-Dec-30 04:41N 25°09' E 121°23'0 0.2
2017-Dec-30 04:26N 25°09' E 121°24'0 0.1
2017-Dec-30 03:55N 25°09' E 121°23'  
Track history (hours):
 
Tides and Currents Weather Stations Pressure Air Temp Water Temp Dewpoint Dewpoint Depression Visibility Wind Speed Wind Dir Waves Ship Positions

Adriatic Id

Last reported at 2018-Jan-09 03:51 UTC. Time now 2018-Jan-22 18:38 UTC.
Position N 25°20' E 121°33'.
Warning: this ship's position is 13 days out of date.

Length 158 m; draft 9.3 m.

Type: Cargo ship. MMSI: 477559800.

Date/timePositionNaut miles runAvg speedWind from/ knotsBaromVisibWave heightAir tempDewpointWater temp
2018-Jan-09 03:51N 25°20' E 121°33'412.0
2018-Jan-09 03:30N 25°19' E 121°38'511.0
2018-Jan-09 03:00N 25°16' E 121°42'5 9.9
2018-Jan-09 02:30N 25°12' E 121°45'3 5.9
2018-Jan-09 02:01N 25°09' E 121°45'0 0.4
2018-Jan-09 01:28N 25°09' E 121°45'0 0.0
2018-Jan-09 00:58N 25°09' E 121°45'0 0.0
2018-Jan-09 00:28N 25°09' E 121°45'0 0.0
2018-Jan-08 23:58N 25°09' E 121°45'0 0.0
2018-Jan-08 23:28N 25°09' E 121°45'0 0.0
2018-Jan-08 22:58N 25°09' E 121°45'0 0.0
2018-Jan-08 22:28N 25°09' E 121°45'0 0.0
2018-Jan-08 21:58N 25°09' E 121°45'0 0.0
2018-Jan-08 21:28N 25°09' E 121°45'0 0.6
2018-Jan-08 21:00N 25°09' E 121°45'2 4.9
2018-Jan-08 20:31N 25°11' E 121°45'4 7.1
2018-Jan-08 20:00N 25°15' E 121°43'612.0
2018-Jan-08 19:30N 25°19' E 121°38'510.8
2018-Jan-08 19:00N 25°22' E 121°33'610.6
2018-Jan-08 18:29N 25°24' E 121°28'  
2018-Jan-04 12:04N 25°25' E 121°03'  
2018-Jan-01 12:01N 25°14' E 121°16'510.1
2018-Jan-01 11:30N 25°17' E 121°12'5 9.4
2018-Jan-01 11:00N 25°20' E 121°08'9 9.8
2018-Jan-01 10:05N 25°26' E 121°00'110.0
2018-Jan-01 09:58N 25°27' E 120°59'1 0.0
2017-Dec-30 17:30N 25°27' E 121°00'712.0
2017-Dec-30 16:55N 25°22' E 121°06'511.7
2017-Dec-30 16:30N 25°19' E 121°10'611.9
2017-Dec-30 16:01N 25°15' E 121°16'612.4
2017-Dec-30 15:30N 25°11' E 121°20'3 6.6
2017-Dec-30 14:59N 25°09' E 121°23'0 0.1
2017-Dec-30 14:29N 25°09' E 121°24'0 0.1
2017-Dec-30 13:59N 25°09' E 121°23'0 0.0
2017-Dec-30 13:29N 25°09' E 121°23'0 0.0
2017-Dec-30 12:50N 25°09' E 121°23'0 0.0
2017-Dec-30 12:29N 25°09' E 121°23'0 0.0
2017-Dec-30 11:59N 25°09' E 121°23'0 0.0
2017-Dec-30 11:29N 25°09' E 121°23'0 0.0
2017-Dec-30 10:59N 25°09' E 121°23'0 0.1
2017-Dec-30 10:23N 25°09' E 121°24'0 0.1
2017-Dec-30 09:59N 25°09' E 121°23'0 0.0
2017-Dec-30 09:26N 25°09' E 121°23'0 0.0
2017-Dec-30 08:59N 25°09' E 121°23'0 0.0
2017-Dec-30 08:29N 25°09' E 121°23'0 0.0
2017-Dec-30 07:53N 25°09' E 121°23'0 0.1
2017-Dec-30 07:23N 25°09' E 121°24'0 0.0
2017-Dec-30 06:59N 25°09' E 121°24'0 0.1
2017-Dec-30 06:29N 25°09' E 121°23'0 0.0
2017-Dec-30 05:59N 25°09' E 121°23'0 0.1
2017-Dec-30 05:23N 25°09' E 121°24'0 0.1
2017-Dec-30 04:41N 25°09' E 121°23'0 0.2
2017-Dec-30 04:26N 25°09' E 121°24'0 0.1
2017-Dec-30 03:55N 25°09' E 121°23'  

Dump ship's entire track history